Avonmore, Pennsylvania
Current Conditions -  °F | °C
As of 8:50 AM on Monday 20 Oct 2014 (Local Time) from KLBE Reporting Station
Overcast Overcast  
Wind Chill: 39°   Ceiling: 15000
Heat Index: 43°   Visibility: 20mi
Dew Point: 39°   Wind: 7mph
Humidity: 87%   Direction: 250°WSW
Pressure: 30.04"   Gusts: NA
Location:  40.53°N, 79.46°W
Report Text: KLBE 201250Z 25006KT 20SM SCT130 OVC150 06/04 A3004
Loading
Personal Weather Stations






























Interactive Weather Map
Tropical Storm Tracking
New forecast layout! Learn more

10-Day Weather Forecast

Advertisements
Track Severe Weather on mobile